createdAt,value
2023-02-28T00:00:21.294Z,148563.16
2023-02-28T00:02:47.818Z,148541.84
2023-02-28T00:05:16.072Z,148531.78
2023-02-28T00:07:42.600Z,148551.84
2023-02-28T00:10:12.662Z,148549.34
2023-02-28T00:12:38.933Z,148560.66
2023-02-28T00:15:10.240Z,148540.59
2023-02-28T00:17:37.016Z,148524.28
2023-02-28T00:20:04.885Z,148512.97
2023-02-28T00:22:31.189Z,148507.97
2023-02-28T00:24:57.044Z,148481.59
2023-02-28T00:27:23.268Z,148450.28
2023-02-28T00:29:49.117Z,148470.34
2023-02-28T00:32:15.444Z,148459.03
2023-02-28T00:34:41.386Z,148437.72
2023-02-28T00:37:09.619Z,148462.78
2023-02-28T00:39:36.997Z,148492.91
2023-02-28T00:42:03.699Z,148456.53
2023-02-28T00:44:30.222Z,148507.97
2023-02-28T00:46:56.804Z,148470.34
2023-02-28T00:49:23.115Z,148474.09
2023-02-28T00:51:49.360Z,148451.53
2023-02-28T00:54:15.631Z,148449.03
2023-02-28T00:56:41.527Z,148459.03
2023-02-28T00:59:08.414Z,148462.78
2023-02-28T01:01:34.872Z,148449.03
2023-02-28T01:04:00.786Z,148442.72
2023-02-28T01:06:26.805Z,148439.00
2023-02-28T01:08:52.608Z,148460.28
2023-02-28T01:11:21.774Z,148454.03
2023-02-28T01:13:48.481Z,148441.50
2023-02-28T01:16:14.476Z,148451.53
2023-02-28T01:18:40.768Z,148456.53
2023-02-28T01:21:15.886Z,148427.69
2023-02-28T01:23:42.413Z,148441.50
2023-02-28T01:26:20.529Z,148440.25
2023-02-28T01:28:47.532Z,148469.09
2023-02-28T01:31:13.497Z,148495.41
2023-02-28T01:33:39.939Z,148486.66
2023-02-28T01:36:18.947Z,148499.16
2023-02-28T01:38:45.785Z,148500.41
2023-02-28T01:41:24.566Z,148486.66
2023-02-28T01:43:50.342Z,148469.09
2023-02-28T01:46:16.544Z,148481.59
2023-02-28T01:48:48.622Z,148475.34
2023-02-28T01:51:23.029Z,148491.66
2023-02-28T01:53:53.259Z,148501.72
2023-02-28T01:56:24.825Z,148461.53
2023-02-28T01:58:52.453Z,148435.22
2023-02-28T02:01:23.540Z,148466.59
2023-02-28T02:03:55.578Z,148469.09
2023-02-28T02:06:44.449Z,148472.84
2023-02-28T02:09:12.426Z,148479.09
2023-02-28T02:11:42.928Z,148459.03
2023-02-28T02:14:11.627Z,148442.72
2023-02-28T02:17:06.199Z,148440.25
2023-02-28T02:19:54.635Z,148446.50
2023-02-28T02:22:46.507Z,148446.50
2023-02-28T02:25:27.297Z,148425.19
2023-02-28T02:27:55.938Z,148408.88
2023-02-28T02:30:44.581Z,148393.81
2023-02-28T02:33:47.587Z,148376.28
2023-02-28T02:36:21.570Z,148341.22
2023-02-28T02:38:53.935Z,148360.03
2023-02-28T02:41:44.556Z,148358.72
2023-02-28T02:44:39.031Z,148388.81
2023-02-28T02:47:14.216Z,148375.03
2023-02-28T02:49:43.763Z,148356.22
2023-02-28T02:52:13.611Z,148387.56
2023-02-28T02:54:43.922Z,148343.72
2023-02-28T02:57:37.011Z,148316.13
2023-02-28T03:00:08.208Z,148343.72
2023-02-28T03:02:37.626Z,148352.47
2023-02-28T03:05:13.255Z,148343.72
2023-02-28T03:07:39.086Z,148304.81
2023-02-28T03:10:34.055Z,148331.16
2023-02-28T03:13:36.012Z,148294.81
2023-02-28T03:16:20.645Z,148296.06
2023-02-28T03:18:58.449Z,148319.88
2023-02-28T03:21:24.155Z,148293.56
2023-02-28T03:23:59.196Z,148288.56
2023-02-28T03:26:27.981Z,148279.78
2023-02-28T03:28:59.815Z,148272.28
2023-02-28T03:31:45.135Z,148273.53
2023-02-28T03:34:24.201Z,148281.03
2023-02-28T03:36:56.453Z,148286.03
2023-02-28T03:39:27.382Z,148273.53
2023-02-28T03:42:01.072Z,148289.81
2023-02-28T03:44:34.336Z,148288.56
2023-02-28T03:47:18.090Z,148272.28
2023-02-28T03:49:49.902Z,148288.56
2023-02-28T03:52:18.832Z,148271.03
2023-02-28T03:54:51.695Z,148234.69
2023-02-28T03:57:40.376Z,148245.94
2023-02-28T04:00:20.636Z,148245.94
2023-02-28T04:02:46.493Z,148268.47
2023-02-28T04:05:12.380Z,148279.78
2023-02-28T04:07:38.261Z,148244.69
2023-02-28T04:10:05.236Z,148215.84
2023-02-28T04:12:34.275Z,148228.41
2023-02-28T04:15:00.181Z,148218.41
2023-02-28T04:17:26.208Z,148225.88
2023-02-28T04:19:52.017Z,148213.34
2023-02-28T04:22:18.062Z,148193.31
2023-02-28T04:24:43.983Z,148209.59
2023-02-28T04:27:10.250Z,148228.41
2023-02-28T04:29:36.343Z,148227.13
2023-02-28T04:32:03.149Z,148205.84
2023-02-28T04:34:31.136Z,148199.59
2023-02-28T04:37:11.939Z,148210.84
2023-02-28T04:39:38.991Z,148203.34
2023-02-28T04:42:04.993Z,148167.03
2023-02-28T04:44:30.811Z,148161.97
2023-02-28T04:46:56.601Z,148146.97
2023-02-28T04:49:22.463Z,148174.50
2023-02-28T04:51:50.208Z,148156.97
2023-02-28T04:54:16.475Z,148187.06
2023-02-28T04:56:42.433Z,148178.28
2023-02-28T04:59:08.259Z,148160.72
2023-02-28T05:01:35.159Z,148189.56
2023-02-28T05:04:02.962Z,148170.78
2023-02-28T05:06:31.619Z,148202.09
2023-02-28T05:08:57.699Z,148189.56
2023-02-28T05:11:29.978Z,148170.78
2023-02-28T05:13:56.108Z,148170.78
2023-02-28T05:16:22.458Z,148156.97
2023-02-28T05:18:48.424Z,148128.19
2023-02-28T05:21:25.581Z,148138.19
2023-02-28T05:23:52.172Z,148141.94
2023-02-28T05:26:18.909Z,148150.72
2023-02-28T05:28:44.817Z,148143.19
2023-02-28T05:31:14.299Z,148155.72
2023-02-28T05:33:40.384Z,148161.97
2023-02-28T05:36:06.787Z,148169.53
2023-02-28T05:38:32.628Z,148158.22
2023-02-28T05:40:59.067Z,148153.22
2023-02-28T05:43:24.878Z,148169.53
2023-02-28T05:45:50.722Z,148134.44
2023-02-28T05:48:17.752Z,148156.97
2023-02-28T05:50:45.115Z,148173.28
2023-02-28T05:53:10.901Z,148138.19
2023-02-28T05:55:37.805Z,148135.69
2023-02-28T05:58:03.785Z,148139.44
2023-02-28T06:00:29.778Z,148110.66
2023-02-28T06:02:58.238Z,148115.66
2023-02-28T06:05:24.767Z,148124.41
2023-02-28T06:07:50.647Z,148129.44
2023-02-28T06:10:16.578Z,148113.16
2023-02-28T06:12:43.752Z,148104.38
2023-02-28T06:15:17.028Z,148119.41
2023-02-28T06:17:44.428Z,148123.16
2023-02-28T06:20:12.992Z,148128.19
2023-02-28T06:22:40.048Z,148140.69
2023-02-28T06:25:07.083Z,148118.16
2023-02-28T06:27:33.843Z,148104.38
2023-02-28T06:29:59.743Z,148110.66
2023-02-28T06:32:25.717Z,148133.19
2023-02-28T06:34:51.586Z,148115.66
2023-02-28T06:37:18.310Z,148108.13
2023-02-28T06:39:44.620Z,148123.16
2023-02-28T06:42:10.769Z,148131.94
2023-02-28T06:44:36.690Z,148080.59
2023-02-28T06:47:04.429Z,148083.09
2023-02-28T06:49:32.165Z,148070.56
2023-02-28T06:51:58.044Z,148086.84
2023-02-28T06:54:24.332Z,148130.69
2023-02-28T06:56:50.274Z,148129.44
2023-02-28T06:59:17.137Z,148139.44
2023-02-28T07:01:43.404Z,148156.97
2023-02-28T07:04:09.541Z,148154.47
2023-02-28T07:06:35.547Z,148155.72
2023-02-28T07:09:01.631Z,148169.53
2023-02-28T07:11:28.957Z,148192.06
2023-02-28T07:13:58.493Z,148187.06
2023-02-28T07:16:25.340Z,148198.31
2023-02-28T07:18:53.470Z,148180.81
2023-02-28T07:21:19.279Z,148200.84
2023-02-28T07:23:45.145Z,148239.69
2023-02-28T07:26:14.924Z,148238.44
2023-02-28T07:28:46.803Z,148271.03
2023-02-28T07:31:17.492Z,148272.28
2023-02-28T07:33:43.664Z,148265.97
2023-02-28T07:36:15.371Z,148301.06
2023-02-28T07:38:48.713Z,148297.31
2023-02-28T07:41:20.091Z,148306.13
2023-02-28T07:43:46.213Z,148311.13
2023-02-28T07:46:16.468Z,148338.66
2023-02-28T07:48:43.130Z,148351.22
2023-02-28T07:51:09.226Z,148360.03
2023-02-28T07:53:35.179Z,148370.03
2023-02-28T07:56:02.413Z,148383.81
2023-02-28T07:58:29.672Z,148382.56
2023-02-28T08:00:55.779Z,148410.13
2023-02-28T08:03:23.874Z,148436.47
2023-02-28T08:05:50.272Z,148406.38
2023-02-28T08:08:17.839Z,148421.44
2023-02-28T08:10:44.005Z,148450.28
2023-02-28T08:13:09.844Z,148475.34
2023-02-28T08:15:36.503Z,148514.22
2023-02-28T08:18:02.826Z,148553.09
2023-02-28T08:20:28.887Z,148565.66
2023-02-28T08:22:54.747Z,148561.91
2023-02-28T08:25:20.699Z,148605.78
2023-02-28T08:27:46.518Z,148593.28
2023-02-28T08:30:14.105Z,148615.84
2023-02-28T08:32:41.177Z,148639.66
2023-02-28T08:35:09.356Z,148674.81
2023-02-28T08:37:35.636Z,148732.53
2023-02-28T08:40:01.507Z,148733.84
2023-02-28T08:42:27.421Z,148733.84
2023-02-28T08:44:53.277Z,148720.00
2023-02-28T08:47:19.817Z,148699.94
2023-02-28T08:49:45.733Z,148697.38
2023-02-28T08:52:11.557Z,148704.94
2023-02-28T08:54:37.371Z,148701.19
2023-02-28T08:57:03.820Z,148662.28
2023-02-28T08:59:30.235Z,148689.88
2023-02-28T09:01:56.210Z,148640.94
2023-02-28T09:04:25.147Z,148652.22
2023-02-28T09:06:51.558Z,148623.34
2023-02-28T09:09:17.436Z,148609.59
2023-02-28T09:11:43.220Z,148627.16
2023-02-28T09:14:09.007Z,148630.91
2023-02-28T09:16:35.483Z,148727.53
2023-02-28T09:19:02.453Z,148747.59
2023-02-28T09:21:29.101Z,148696.13
2023-02-28T09:23:55.305Z,148713.72
2023-02-28T09:26:26.635Z,148701.19
2023-02-28T09:28:53.880Z,148730.03
2023-02-28T09:31:23.470Z,148688.63
2023-02-28T09:33:51.158Z,148676.06
2023-02-28T09:36:17.874Z,148656.00
2023-02-28T09:38:44.132Z,148682.38
2023-02-28T09:41:23.223Z,148659.75
2023-02-28T09:44:14.249Z,148642.19
2023-02-28T09:46:47.232Z,148671.06
2023-02-28T09:49:16.655Z,148706.19
2023-02-28T09:51:42.808Z,148672.31
2023-02-28T09:54:20.368Z,148677.31
2023-02-28T09:57:21.750Z,148725.03
2023-02-28T10:00:16.808Z,148917.13
2023-02-28T10:02:58.580Z,148923.41
2023-02-28T10:05:43.411Z,148942.22
2023-02-28T10:08:26.289Z,148984.97
2023-02-28T10:10:57.518Z,148919.63
2023-02-28T10:13:40.031Z,148838.00
2023-02-28T10:16:14.789Z,148860.63
2023-02-28T10:18:47.724Z,148858.06
2023-02-28T10:21:20.857Z,148943.50
2023-02-28T10:23:48.782Z,148890.72
2023-02-28T10:26:17.059Z,148866.88
2023-02-28T10:28:43.743Z,148848.06
2023-02-28T10:31:18.661Z,149081.69
2023-02-28T10:33:45.203Z,149316.78
2023-02-28T10:36:15.357Z,149733.31
2023-02-28T10:38:41.299Z,150211.00
2023-02-28T10:41:20.220Z,150645.19
2023-02-28T10:43:46.241Z,151173.59
2023-02-28T10:46:25.972Z,151362.16
2023-02-28T10:49:05.618Z,151463.44
2023-02-28T10:51:37.808Z,151545.72
2023-02-28T10:54:05.243Z,151872.63
2023-02-28T10:56:33.124Z,152367.38
2023-02-28T10:59:02.791Z,152523.59
2023-02-28T11:01:49.107Z,152284.84
2023-02-28T11:04:32.526Z,152410.56
2023-02-28T11:07:22.112Z,152895.84
2023-02-28T11:09:51.799Z,153011.63
2023-02-28T11:12:26.899Z,153314.38
2023-02-28T11:14:57.608Z,153412.41
2023-02-28T11:17:27.193Z,153799.59
2023-02-28T11:20:01.808Z,153920.72
2023-02-28T11:22:30.255Z,153352.53
2023-02-28T11:25:02.756Z,153160.41
2023-02-28T11:27:31.357Z,153224.03
2023-02-28T11:30:01.252Z,153227.84
2023-02-28T11:32:30.606Z,153302.94
2023-02-28T11:35:11.764Z,153524.47
2023-02-28T11:37:39.057Z,153057.38
2023-02-28T11:40:14.282Z,153337.31
2023-02-28T11:42:52.638Z,153520.66
2023-02-28T11:45:37.471Z,153619.94
2023-02-28T11:48:31.014Z,153755.03
2023-02-28T11:51:20.609Z,153230.44
2023-02-28T11:53:55.321Z,153594.50
2023-02-28T11:56:44.208Z,153706.63
2023-02-28T11:59:25.364Z,153988.25
2023-02-28T12:02:07.339Z,154201.22
2023-02-28T12:05:22.333Z,154410.50
2023-02-28T12:08:16.055Z,154428.38
2023-02-28T12:11:39.021Z,154233.13
2023-02-28T12:14:48.534Z,154091.50
2023-02-28T12:17:32.636Z,154244.63
2023-02-28T12:20:23.526Z,154692.63
2023-02-28T12:22:58.182Z,154856.13
2023-02-28T12:25:48.466Z,154931.53
2023-02-28T12:28:20.221Z,154550.91
2023-02-28T12:31:01.708Z,154462.81
2023-02-28T12:33:34.922Z,154719.50
2023-02-28T12:36:10.276Z,154907.28
2023-02-28T12:38:49.592Z,154971.19
2023-02-28T12:41:22.520Z,155015.88
2023-02-28T12:44:18.353Z,154562.41
2023-02-28T12:46:58.545Z,154475.56
2023-02-28T12:49:31.919Z,154627.53
2023-02-28T12:52:00.940Z,154262.47
2023-02-28T12:54:44.852Z,153913.03
2023-02-28T12:57:18.960Z,154299.47
2023-02-28T12:59:56.234Z,154317.38
2023-02-28T13:02:44.604Z,154233.13
2023-02-28T13:05:41.872Z,154007.41
2023-02-28T13:08:36.509Z,154021.38
2023-02-28T13:11:05.555Z,154358.19
2023-02-28T13:13:33.557Z,153950.00
2023-02-28T13:16:10.213Z,153865.88
2023-02-28T13:18:45.442Z,154094.06
2023-02-28T13:21:27.847Z,154302.00
2023-02-28T13:23:57.201Z,154282.88
2023-02-28T13:26:35.898Z,154151.47
2023-02-28T13:29:20.984Z,153124.78
2023-02-28T13:32:08.612Z,153543.56
2023-02-28T13:34:36.283Z,153621.22
2023-02-28T13:37:20.243Z,153309.28
2023-02-28T13:39:48.548Z,153173.09
2023-02-28T13:42:24.929Z,153120.97
2023-02-28T13:45:05.700Z,152979.81
2023-02-28T13:47:44.467Z,152869.19
2023-02-28T13:50:31.851Z,152904.78
2023-02-28T13:52:57.608Z,152437.25
2023-02-28T13:55:26.891Z,152142.75
2023-02-28T13:58:28.211Z,151996.88
2023-02-28T14:01:17.150Z,151634.38
2023-02-28T14:03:56.577Z,151455.81
2023-02-28T14:06:30.942Z,151310.22
2023-02-28T14:09:16.548Z,151230.50
2023-02-28T14:11:43.880Z,151105.28
2023-02-28T14:14:50.215Z,150894.13
2023-02-28T14:17:17.510Z,150737.38
2023-02-28T14:19:49.815Z,150627.50
2023-02-28T14:22:34.436Z,150554.28
2023-02-28T14:25:24.527Z,150479.78
2023-02-28T14:28:26.080Z,150419.22
2023-02-28T14:31:01.104Z,150267.75
2023-02-28T14:33:46.036Z,150281.63
2023-02-28T14:36:24.803Z,150227.41
2023-02-28T14:38:53.980Z,150195.84
2023-02-28T14:41:40.893Z,150170.66
2023-02-28T14:44:23.557Z,150134.06
2023-02-28T14:46:53.890Z,150071.00
2023-02-28T14:49:45.776Z,150063.47
2023-02-28T14:52:29.959Z,150055.88
2023-02-28T14:55:06.091Z,150021.88
2023-02-28T14:57:42.859Z,149976.50
2023-02-28T15:00:30.001Z,149965.13
2023-02-28T15:02:57.246Z,149947.47
2023-02-28T15:05:34.768Z,149854.25
2023-02-28T15:08:04.470Z,149876.91
2023-02-28T15:10:31.336Z,149909.69
2023-02-28T15:13:08.563Z,149878.19
2023-02-28T15:15:46.348Z,149840.38
2023-02-28T15:18:45.416Z,149817.72
2023-02-28T15:21:24.564Z,149846.72
2023-02-28T15:23:57.251Z,149793.81
2023-02-28T15:26:30.336Z,149830.34
2023-02-28T15:29:04.682Z,149829.09
2023-02-28T15:31:56.056Z,149817.72
2023-02-28T15:34:44.866Z,149693.03
2023-02-28T15:37:32.841Z,149744.69
2023-02-28T15:40:53.888Z,149715.69
2023-02-28T15:43:26.124Z,149695.56
2023-02-28T15:46:13.462Z,149715.69
2023-02-28T15:48:54.168Z,149718.25
2023-02-28T15:51:34.409Z,149690.53
2023-02-28T15:54:04.580Z,149661.56
2023-02-28T15:56:34.050Z,149681.75
2023-02-28T15:59:06.051Z,149688.00
2023-02-28T16:01:37.660Z,149664.09
2023-02-28T16:04:06.601Z,149647.75
2023-02-28T16:06:34.115Z,149623.78
2023-02-28T16:09:00.088Z,149611.22
2023-02-28T16:11:26.203Z,149596.13
2023-02-28T16:13:53.252Z,149586.03
2023-02-28T16:16:22.924Z,149587.28
2023-02-28T16:18:49.086Z,149579.75
2023-02-28T16:21:14.991Z,149577.25
2023-02-28T16:23:41.863Z,149596.13
2023-02-28T16:26:10.517Z,149554.56
2023-02-28T16:28:38.759Z,149540.75
2023-02-28T16:31:07.693Z,149506.75
2023-02-28T16:33:34.607Z,149513.03
2023-02-28T16:36:00.828Z,149506.75
2023-02-28T16:38:27.561Z,149501.69
2023-02-28T16:40:58.538Z,149501.69
2023-02-28T16:43:26.544Z,149460.19
2023-02-28T16:46:00.185Z,149445.06
2023-02-28T16:48:27.107Z,149446.34
2023-02-28T16:50:53.038Z,149424.94
2023-02-28T16:53:18.981Z,149409.84
2023-02-28T16:55:44.903Z,149408.59
2023-02-28T16:58:15.648Z,149402.31
2023-02-28T17:00:41.788Z,149404.84
2023-02-28T17:03:32.619Z,149378.44
2023-02-28T17:05:59.631Z,149367.09
2023-02-28T17:08:25.776Z,149340.66
2023-02-28T17:10:51.649Z,149309.25
2023-02-28T17:13:17.587Z,149311.75
2023-02-28T17:15:46.653Z,149333.13
2023-02-28T17:18:21.532Z,149314.28
2023-02-28T17:20:48.095Z,149300.44
2023-02-28T17:23:14.206Z,149309.25
2023-02-28T17:25:40.103Z,149314.28
2023-02-28T17:28:06.060Z,149271.53
2023-02-28T17:30:34.720Z,149297.91
2023-02-28T17:33:00.677Z,149255.19
2023-02-28T17:35:27.080Z,149255.19
2023-02-28T17:37:53.244Z,149274.03
2023-02-28T17:40:22.308Z,149257.69
2023-02-28T17:42:48.503Z,149272.78
2023-02-28T17:45:15.172Z,149237.56
2023-02-28T17:47:44.453Z,149241.34
2023-02-28T17:50:17.209Z,149240.09
2023-02-28T17:52:43.104Z,149199.88
2023-02-28T17:55:10.009Z,149174.69
2023-02-28T17:57:35.919Z,149169.69
2023-02-28T18:00:06.277Z,149170.94
2023-02-28T18:02:32.868Z,149186.03
2023-02-28T18:04:58.961Z,149197.31
2023-02-28T18:07:26.222Z,149197.31
2023-02-28T18:09:52.158Z,149144.56
2023-02-28T18:12:18.201Z,149143.25
2023-02-28T18:14:45.519Z,149113.13
2023-02-28T18:17:12.644Z,149131.97
2023-02-28T18:19:38.994Z,149130.72
2023-02-28T18:22:07.692Z,149139.50
2023-02-28T18:24:34.288Z,149124.41
2023-02-28T18:27:00.122Z,149116.88
2023-02-28T18:29:27.546Z,149110.63
2023-02-28T18:31:55.000Z,149086.72
2023-02-28T18:34:21.724Z,149087.97
2023-02-28T18:36:50.252Z,149104.31
2023-02-28T18:39:17.137Z,149087.97
2023-02-28T18:41:43.058Z,149065.34
2023-02-28T18:44:19.100Z,149041.50
2023-02-28T18:46:46.342Z,149033.94
2023-02-28T18:49:12.354Z,149021.41
2023-02-28T18:51:38.335Z,149028.91
2023-02-28T18:54:04.330Z,149005.06
2023-02-28T18:56:30.476Z,149005.06
2023-02-28T18:58:56.513Z,149017.59
2023-02-28T19:01:27.885Z,149046.50
2023-02-28T19:03:53.862Z,149031.44
2023-02-28T19:06:19.913Z,149033.94
2023-02-28T19:08:45.804Z,149018.84
2023-02-28T19:11:14.796Z,149006.31
2023-02-28T19:13:41.665Z,149023.91
2023-02-28T19:16:08.884Z,149016.34
2023-02-28T19:18:35.327Z,149002.56
2023-02-28T19:21:01.900Z,149003.81
2023-02-28T19:23:30.765Z,149017.59
2023-02-28T19:25:56.665Z,149010.06
2023-02-28T19:28:23.490Z,149013.84
2023-02-28T19:30:52.224Z,148989.97
2023-02-28T19:33:19.492Z,148956.06
2023-02-28T19:35:46.029Z,148969.88
2023-02-28T19:38:12.324Z,148954.81
2023-02-28T19:40:38.812Z,148988.72
2023-02-28T19:43:06.174Z,148988.72
2023-02-28T19:45:33.220Z,148959.81
2023-02-28T19:47:59.237Z,148942.22
2023-02-28T19:50:25.321Z,148978.66
2023-02-28T19:52:51.276Z,148959.81
2023-02-28T19:55:17.560Z,148971.16
2023-02-28T19:57:43.514Z,148952.31
2023-02-28T20:00:13.380Z,148951.06
2023-02-28T20:02:40.837Z,148934.72
2023-02-28T20:05:07.734Z,148890.72
2023-02-28T20:07:33.812Z,148883.22
2023-02-28T20:10:00.876Z,148893.25
2023-02-28T20:12:27.318Z,148869.41
2023-02-28T20:14:57.032Z,148848.06
2023-02-28T20:17:23.387Z,148851.81
2023-02-28T20:19:49.259Z,148874.41
2023-02-28T20:22:15.566Z,148876.97
2023-02-28T20:24:41.435Z,148875.66
2023-02-28T20:27:07.379Z,148904.56
2023-02-28T20:29:33.918Z,148878.22
2023-02-28T20:32:00.522Z,148851.81
2023-02-28T20:34:26.645Z,148851.81
2023-02-28T20:36:52.758Z,148835.50
2023-02-28T20:39:18.680Z,148824.22
2023-02-28T20:41:44.530Z,148860.63
2023-02-28T20:44:12.799Z,148821.66
2023-02-28T20:46:40.581Z,148811.66
2023-02-28T20:49:06.880Z,148805.38
2023-02-28T20:51:32.820Z,148836.75
2023-02-28T20:53:58.644Z,148822.97
2023-02-28T20:56:24.543Z,148782.75
2023-02-28T20:58:52.519Z,148757.66
2023-02-28T21:01:27.733Z,148735.09
2023-02-28T21:04:02.517Z,148763.94
2023-02-28T21:06:32.384Z,148775.25
2023-02-28T21:08:58.710Z,148766.44
2023-02-28T21:11:30.053Z,148762.66
2023-02-28T21:13:59.466Z,148732.53
2023-02-28T21:16:28.837Z,148732.53
2023-02-28T21:18:55.572Z,148751.34
2023-02-28T21:21:23.699Z,148765.19
2023-02-28T21:23:51.015Z,148774.00
2023-02-28T21:26:19.590Z,148782.75
2023-02-28T21:28:50.206Z,148780.25
2023-02-28T21:31:17.475Z,148752.66
2023-02-28T21:33:44.653Z,148755.16
2023-02-28T21:36:16.568Z,148747.59
2023-02-28T21:38:44.412Z,148731.28
2023-02-28T21:41:11.598Z,148697.38
2023-02-28T21:43:38.056Z,148714.97
2023-02-28T21:46:06.460Z,148702.44
2023-02-28T21:48:33.310Z,148709.94
2023-02-28T21:51:01.801Z,148718.75
2023-02-28T21:53:32.548Z,148721.28
2023-02-28T21:56:03.872Z,148689.88
2023-02-28T21:58:29.924Z,148706.19
2023-02-28T22:01:04.417Z,148697.38
2023-02-28T22:03:30.290Z,148697.38
2023-02-28T22:05:56.090Z,148698.69
2023-02-28T22:08:21.998Z,148730.03
2023-02-28T22:10:47.896Z,148716.25
2023-02-28T22:13:13.750Z,148662.28
2023-02-28T22:15:39.617Z,148671.06
2023-02-28T22:18:05.874Z,148632.16
2023-02-28T22:20:32.035Z,148602.03
2023-02-28T22:22:58.124Z,148565.66
2023-02-28T22:25:24.127Z,148558.16
2023-02-28T22:27:49.982Z,148578.22
2023-02-28T22:30:16.237Z,148561.91
2023-02-28T22:32:42.086Z,148550.59
2023-02-28T22:35:08.307Z,148565.66
2023-02-28T22:37:34.136Z,148541.84
2023-02-28T22:39:59.985Z,148531.78
2023-02-28T22:42:25.835Z,148529.28
2023-02-28T22:44:51.765Z,148544.34
2023-02-28T22:47:17.786Z,148520.53
2023-02-28T22:49:43.749Z,148550.59
2023-02-28T22:52:09.806Z,148541.84
2023-02-28T22:54:35.648Z,148549.34
2023-02-28T22:57:01.554Z,148540.59
2023-02-28T22:59:27.473Z,148524.28
2023-02-28T23:01:53.340Z,148517.97
2023-02-28T23:04:19.177Z,148526.78
2023-02-28T23:06:45.265Z,148515.47
2023-02-28T23:09:14.346Z,148516.72
2023-02-28T23:11:42.782Z,148501.72
2023-02-28T23:14:12.009Z,148523.03
2023-02-28T23:16:42.443Z,148519.22
2023-02-28T23:19:11.607Z,148525.53
2023-02-28T23:21:38.644Z,148524.28
2023-02-28T23:24:09.863Z,148500.41
2023-02-28T23:26:37.863Z,148494.16
2023-02-28T23:29:04.544Z,148494.16
2023-02-28T23:31:30.839Z,148511.72
2023-02-28T23:33:57.021Z,148523.03
2023-02-28T23:36:23.619Z,148525.53
2023-02-28T23:38:51.500Z,148492.91
2023-02-28T23:41:18.378Z,148520.53
2023-02-28T23:43:44.431Z,148507.97
2023-02-28T23:46:11.311Z,148452.78
2023-02-28T23:48:37.863Z,148451.53
2023-02-28T23:51:09.877Z,148444.00
2023-02-28T23:53:37.847Z,148441.50
2023-02-28T23:56:05.170Z,148476.59
2023-02-28T23:58:31.697Z,148455.28
